Time;durP1;ratioP1;P1;durP2;ratioP2;P2;SDS_P1;SDS_P2;PMS_P1;PMS_P2;Temp;Humidity;BMP_temperature;BMP_pressure;BME280_temperature;BME280_humidity;BME280_pressure;Samples;Min_cycle;Max_cycle;Signal;HPM_P1;HPM_P2
2024/01/31 00:02:22;;;;;;;;;;;3.70;99.90;;;;;;20849612;28;20292;-80
2024/01/31 00:12:23;;;;;;;;;;;3.60;99.90;;;;;;20859128;28;19913;-81
2024/01/31 00:22:24;;;;;;;;;;;3.60;99.90;;;;;;20864612;28;20439;-81
2024/01/31 00:32:24;;;;;;;;;;;3.30;99.90;;;;;;20860713;28;19913;-81
2024/01/31 00:42:25;;;;;;;;;;;3.30;99.90;;;;;;20853062;28;19961;-80
2024/01/31 00:52:26;;;;;;;;;;;3.00;99.90;;;;;;20861578;28;19920;-81
2024/01/31 01:02:27;;;;;;;;;;;2.90;99.90;;;;;;20860640;28;19929;-79
2024/01/31 01:12:27;;;;;;;;;;;2.70;99.90;;;;;;20860970;28;19936;-82
2024/01/31 01:22:28;;;;;;;;;;;2.70;99.90;;;;;;20846099;28;19921;-81
2024/01/31 01:32:28;;;;;;;;;;;2.70;99.90;;;;;;20857730;28;19913;-79
2024/01/31 01:42:29;;;;;;;;;;;2.80;99.90;;;;;;20878630;28;19917;-78
2024/01/31 01:52:31;;;;;;;;;;;2.70;99.90;;;;;;20892395;28;19972;-81
2024/01/31 02:02:32;;;;;;;;;;;2.60;99.90;;;;;;20889744;28;19917;-80
2024/01/31 02:12:32;;;;;;;;;;;2.60;99.90;;;;;;20870206;28;19913;-81
2024/01/31 02:22:33;;;;;;;;;;;2.30;99.90;;;;;;20859586;28;20019;-81
2024/01/31 02:32:34;;;;;;;;;;;2.10;99.90;;;;;;20842354;28;20402;-81
2024/01/31 02:42:34;;;;;;;;;;;2.00;99.90;;;;;;20853378;28;19987;-81
2024/01/31 02:52:35;;;;;;;;;;;2.00;99.90;;;;;;20858101;28;19921;-81
2024/01/31 03:02:36;;;;;;;;;;;1.80;99.90;;;;;;20872380;28;19963;-81
2024/01/31 03:12:36;;;;;;;;;;;1.80;99.90;;;;;;20853792;28;19916;-80
2024/01/31 03:22:37;;;;;;;;;;;1.80;99.90;;;;;;20853175;28;19928;-81
2024/01/31 03:32:38;;;;;;;;;;;1.80;99.90;;;;;;20852359;28;20003;-81
2024/01/31 03:42:38;;;;;;;;;;;1.50;99.90;;;;;;20857843;28;19917;-82
2024/01/31 03:52:39;;;;;;;;;;;1.60;99.90;;;;;;20867794;28;20001;-82
2024/01/31 04:02:40;;;;;;;;;;;1.60;99.90;;;;;;20848192;28;19921;-82
2024/01/31 04:12:40;;;;;;;;;;;1.60;99.90;;;;;;20864852;28;19913;-79
2024/01/31 04:22:41;;;;;;;;;;;1.40;99.90;;;;;;20864596;28;19924;-80
2024/01/31 04:32:41;;;;;;;;;;;1.30;99.90;;;;;;20866217;28;19917;-80
2024/01/31 04:42:44;;;;;;;;;;;1.40;99.90;;;;;;20859245;28;19917;-79
2024/01/31 04:52:44;;;;;;;;;;;1.10;99.90;;;;;;20866643;28;19960;-80
2024/01/31 05:02:46;;;;;;;;;;;1.00;99.90;;;;;;20858801;28;20093;-80
2024/01/31 05:12:46;;;;;;;;;;;1.30;99.90;;;;;;20859069;28;19980;-79
2024/01/31 05:22:47;;;;;;;;;;;1.10;99.90;;;;;;20849450;28;19928;-79
2024/01/31 05:32:47;;;;;;;;;;;1.20;99.90;;;;;;20858139;28;19948;-78
2024/01/31 05:42:48;;;;;;;;;;;1.40;99.90;;;;;;20856136;28;19925;-77
2024/01/31 05:52:49;;;;;;;;;;;1.40;99.90;;;;;;20856500;28;19967;-78
2024/01/31 06:02:49;;;;;;;;;;;1.20;99.90;;;;;;20869792;28;19924;-77
2024/01/31 06:12:50;;;;;;;;;;;1.10;99.90;;;;;;20871218;28;19913;-79
2024/01/31 06:22:51;;;;;;;;;;;1.10;99.90;;;;;;20866994;28;19988;-80
2024/01/31 06:32:51;;;;;;;;;;;1.20;99.90;;;;;;20885476;28;19964;-79
2024/01/31 06:42:52;;;;;;;;;;;1.30;99.90;;;;;;20869371;28;19917;-79
2024/01/31 06:52:53;;;;;;;;;;;1.30;99.90;;;;;;20861184;28;19967;-79
2024/01/31 07:02:55;;;;;;;;;;;1.30;99.90;;;;;;20871811;28;19917;-78
2024/01/31 07:12:55;;;;;;;;;;;1.30;99.90;;;;;;20849014;28;19913;-78
2024/01/31 07:22:56;;;;;;;;;;;1.20;99.90;;;;;;20867148;28;19984;-79
2024/01/31 07:32:57;;;;;;;;;;;1.20;99.90;;;;;;20873711;28;20019;-78
2024/01/31 07:42:57;;;;;;;;;;;1.40;99.90;;;;;;20865420;28;19967;-79
2024/01/31 07:52:58;;;;;;;;;;;1.70;99.90;;;;;;20904093;28;19943;-79
2024/01/31 08:02:58;;;;;;;;;;;1.80;99.90;;;;;;20878779;28;19917;-78
2024/01/31 08:12:59;;;;;;;;;;;1.90;99.90;;;;;;20873534;28;20012;-78
2024/01/31 08:23:00;;;;;;;;;;;2.00;99.90;;;;;;20863076;28;19921;-80
2024/01/31 08:33:02;;;;;;;;;;;2.10;99.90;;;;;;20860899;28;19924;-77
2024/01/31 08:43:03;;;;;;;;;;;2.10;99.90;;;;;;20847554;28;20147;-79
2024/01/31 08:53:04;;;;;;;;;;;2.00;99.90;;;;;;20869506;28;20268;-79
2024/01/31 09:03:04;;;;;;;;;;;2.30;99.90;;;;;;20873260;28;19921;-80
2024/01/31 09:13:05;;;;;;;;;;;2.60;99.90;;;;;;20876612;28;19913;-80
2024/01/31 09:23:06;;;;;;;;;;;3.20;99.90;;;;;;20833573;28;19955;-80
2024/01/31 09:33:06;;;;;;;;;;;4.00;99.90;;;;;;20860046;28;20269;-80
2024/01/31 09:43:08;;;;;;;;;;;4.70;99.90;;;;;;20865807;28;19921;-81
2024/01/31 09:53:10;;;;;;;;;;;4.70;99.90;;;;;;20856634;28;19914;-78
2024/01/31 10:03:11;;;;;;;;;;;4.70;99.90;;;;;;20850688;28;19943;-81
2024/01/31 10:13:19;;;;;;;;;;;4.30;99.90;;;;;;21287340;27;19916;-80
2024/01/31 10:23:19;;;;;;;;;;;4.90;99.90;;;;;;21235124;28;20389;-80
2024/01/31 10:33:21;;;;;;;;;;;4.60;99.90;;;;;;21228876;27;19919;-81
2024/01/31 10:43:21;;;;;;;;;;;4.90;99.90;;;;;;21214099;27;19992;-81
2024/01/31 10:53:23;;;;;;;;;;;5.30;99.90;;;;;;21187648;28;19920;-76
2024/01/31 11:03:23;;;;;;;;;;;7.40;99.90;;;;;;21219993;27;20290;-80
2024/01/31 11:13:24;;;;;;;;;;;7.80;99.90;;;;;;21210269;28;19919;-79
2024/01/31 11:23:28;;;;;;;;;;;6.60;99.90;;;;;;21180272;27;19923;-79
2024/01/31 11:33:28;;;;;;;;;;;5.90;99.90;;;;;;21184580;28;19921;-79
2024/01/31 11:43:29;;;;;;;;;;;8.60;99.90;;;;;;21158751;28;19934;-79
2024/01/31 11:53:30;;;;;;;;;;;11.10;99.90;;;;;;21171090;28;19912;-79
2024/01/31 12:03:30;;;;;;;;;;;12.00;99.90;;;;;;21170637;28;19912;-79
2024/01/31 12:13:31;;;;;;;;;;;12.40;99.90;;;;;;21180414;28;19912;-79
2024/01/31 12:23:32;;;;;;;;;;;13.80;99.90;;;;;;21170544;28;19923;-78
2024/01/31 12:33:33;;;;;;;;;;;14.50;99.90;;;;;;21190560;28;19912;-79
2024/01/31 12:43:34;;;;;;;;;;;14.20;99.90;;;;;;21179729;28;19994;-78
2024/01/31 12:53:34;;;;;;;;;;;12.40;99.90;;;;;;21208207;28;19934;-78
2024/01/31 13:03:36;;;;;;;;;;;13.10;99.90;;;;;;21216129;28;19951;-78
2024/01/31 13:13:37;;;;;;;;;;;12.90;99.90;;;;;;21179785;28;19912;-77
2024/01/31 13:23:39;;;;;;;;;;;13.50;99.90;;;;;;21182107;28;19912;-78
2024/01/31 13:33:40;;;;;;;;;;;15.30;99.90;;;;;;21130355;28;19949;-78
2024/01/31 13:43:41;;;;;;;;;;;14.20;99.90;;;;;;21107127;28;20397;-77
2024/01/31 13:53:41;;;;;;;;;;;14.40;99.90;;;;;;21140617;28;20102;-78
2024/01/31 14:03:42;;;;;;;;;;;14.80;99.90;;;;;;21108246;28;20267;-78
2024/01/31 14:13:43;;;;;;;;;;;13.80;99.90;;;;;;21112811;28;19934;-77
2024/01/31 14:23:45;;;;;;;;;;;13.60;99.90;;;;;;21102579;28;19938;-77
2024/01/31 14:33:45;;;;;;;;;;;13.90;99.90;;;;;;21097070;28;20007;-77
2024/01/31 14:43:46;;;;;;;;;;;14.50;99.90;;;;;;21109511;28;19927;-79
2024/01/31 14:53:47;;;;;;;;;;;15.50;99.90;;;;;;21119586;28;19912;-78
2024/01/31 15:03:47;;;;;;;;;;;15.70;99.90;;;;;;21120204;28;20411;-77
2024/01/31 15:13:48;;;;;;;;;;;15.40;99.90;;;;;;21112695;28;20010;-77
2024/01/31 15:23:49;;;;;;;;;;;13.80;99.90;;;;;;21108107;28;19969;-77
2024/01/31 15:33:50;;;;;;;;;;;13.30;99.90;;;;;;21112957;28;19912;-77
2024/01/31 15:43:50;;;;;;;;;;;13.50;99.90;;;;;;21135086;27;20324;-78
2024/01/31 15:53:51;;;;;;;;;;;13.50;99.90;;;;;;21110602;28;19911;-77
2024/01/31 16:03:52;;;;;;;;;;;13.10;99.90;;;;;;21107311;28;20294;-77
2024/01/31 16:13:52;;;;;;;;;;;12.30;99.90;;;;;;21124494;28;19912;-77
2024/01/31 16:23:53;;;;;;;;;;;10.10;99.90;;;;;;21138753;28;20434;-77
2024/01/31 16:33:54;;;;;;;;;;;9.30;99.90;;;;;;21132128;28;20349;-77
2024/01/31 16:43:55;;;;;;;;;;;9.10;99.90;;;;;;21123954;28;20268;-76
2024/01/31 16:53:56;;;;;;;;;;;8.80;99.90;;;;;;21123458;28;19916;-78
2024/01/31 17:03:58;;;;;;;;;;;7.90;99.90;;;;;;21135171;28;19922;-78
2024/01/31 17:13:59;;;;;;;;;;;7.30;99.90;;;;;;21145128;28;19923;-78
2024/01/31 17:24:00;;;;;;;;;;;6.90;99.90;;;;;;21147451;28;20382;-78
2024/01/31 17:34:00;;;;;;;;;;;6.80;99.90;;;;;;21150892;28;20107;-79
2024/01/31 17:44:01;;;;;;;;;;;6.70;99.90;;;;;;21152954;28;19923;-79
2024/01/31 17:54:02;;;;;;;;;;;6.70;99.90;;;;;;21143774;28;19913;-78
2024/01/31 18:04:11;;;;;;;;;;;6.20;99.90;;;;;;21113735;28;19916;-79
2024/01/31 18:14:12;;;;;;;;;;;5.80;99.90;;;;;;21108233;28;21203;-78
2024/01/31 18:24:13;;;;;;;;;;;6.00;99.90;;;;;;21122158;28;19951;-78
2024/01/31 18:34:13;;;;;;;;;;;5.30;99.90;;;;;;21123071;28;19912;-78
2024/01/31 18:44:14;;;;;;;;;;;5.60;99.90;;;;;;21138725;28;19922;-78
2024/01/31 18:54:15;;;;;;;;;;;6.00;99.90;;;;;;21137243;28;19916;-77
2024/01/31 19:04:15;;;;;;;;;;;6.10;99.90;;;;;;21119853;28;20393;-77
2024/01/31 19:14:17;;;;;;;;;;;5.90;99.90;;;;;;21146004;28;19920;-78
2024/01/31 19:24:18;;;;;;;;;;;6.00;99.90;;;;;;21139269;28;20035;-77
2024/01/31 19:34:19;;;;;;;;;;;6.30;99.90;;;;;;21155091;28;19912;-78
2024/01/31 19:44:19;;;;;;;;;;;6.50;99.90;;;;;;21121574;28;19922;-78
2024/01/31 19:54:23;;;;;;;;;;;6.50;99.90;;;;;;21130872;28;20108;-79
2024/01/31 20:04:24;;;;;;;;;;;6.70;99.90;;;;;;21132055;28;19916;-78
2024/01/31 20:14:25;;;;;;;;;;;7.10;99.90;;;;;;21145336;28;20423;-77
2024/01/31 20:24:27;;;;;;;;;;;7.20;99.90;;;;;;21161718;28;20056;-78
2024/01/31 20:34:28;;;;;;;;;;;7.20;99.90;;;;;;21172562;28;19912;-78
2024/01/31 20:44:28;;;;;;;;;;;7.20;99.90;;;;;;21161598;28;19916;-79
2024/01/31 20:54:29;;;;;;;;;;;7.00;99.90;;;;;;21164879;28;19947;-79
2024/01/31 21:04:29;;;;;;;;;;;6.80;99.90;;;;;;21197709;28;19923;-78
2024/01/31 21:14:32;;;;;;;;;;;6.70;99.90;;;;;;21216628;28;20049;-78
2024/01/31 21:24:32;;;;;;;;;;;6.60;99.90;;;;;;21166597;27;19964;-77
2024/01/31 21:34:33;;;;;;;;;;;6.20;99.90;;;;;;21161759;28;20003;-78
2024/01/31 21:44:34;;;;;;;;;;;5.70;99.90;;;;;;21148297;28;20259;-78
2024/01/31 21:54:34;;;;;;;;;;;5.60;99.90;;;;;;21154035;28;19976;-78
2024/01/31 22:04:35;;;;;;;;;;;5.50;99.90;;;;;;21163143;28;19923;-79
2024/01/31 22:14:36;;;;;;;;;;;5.50;99.90;;;;;;21156702;28;19916;-78
2024/01/31 22:24:37;;;;;;;;;;;5.80;99.90;;;;;;21154065;28;19927;-76
2024/01/31 22:34:37;;;;;;;;;;;6.00;99.90;;;;;;21148984;28;20458;-79
2024/01/31 22:44:38;;;;;;;;;;;5.90;99.90;;;;;;21147678;28;20464;-79
2024/01/31 22:54:39;;;;;;;;;;;6.00;99.90;;;;;;21152827;28;20007;-78
2024/01/31 23:04:40;;;;;;;;;;;5.90;99.90;;;;;;21147222;28;19947;-79
2024/01/31 23:14:43;;;;;;;;;;;6.00;99.90;;;;;;21125549;28;19957;-79
2024/01/31 23:24:43;;;;;;;;;;;6.10;99.90;;;;;;21154824;28;19994;-79
2024/01/31 23:34:44;;;;;;;;;;;6.00;99.90;;;;;;21154616;28;19912;-79
2024/01/31 23:44:45;;;;;;;;;;;5.80;99.90;;;;;;21127916;27;19924;-78
2024/01/31 23:54:45;;;;;;;;;;;5.70;99.90;;;;;;21132453;28;19926;-78
